createdAt,value
2017-01-06T00:00:14.085Z,971.03
2017-01-06T00:02:26.579Z,971.06
2017-01-06T00:04:39.600Z,971.1
2017-01-06T00:06:56.676Z,971.09
2017-01-06T00:09:09.436Z,971.15
2017-01-06T00:11:25.537Z,971.09
2017-01-06T00:13:42.029Z,971.19
2017-01-06T00:15:57.160Z,971.16
2017-01-06T00:18:17.000Z,971.2
2017-01-06T00:20:31.472Z,971.26
2017-01-06T00:22:47.634Z,971.3
2017-01-06T00:24:59.974Z,971.32
2017-01-06T00:27:09.801Z,971.33
2017-01-06T00:29:24.966Z,971.35
2017-01-06T00:31:37.680Z,971.38
2017-01-06T00:33:51.525Z,971.37
2017-01-06T00:35:58.878Z,971.42
2017-01-06T00:38:13.668Z,971.4
2017-01-06T00:40:26.263Z,971.37
2017-01-06T00:42:34.906Z,971.46
2017-01-06T00:44:47.896Z,971.47
2017-01-06T00:47:03.431Z,971.47
2017-01-06T00:49:15.769Z,971.46
2017-01-06T00:51:23.089Z,971.47
2017-01-06T00:53:35.434Z,971.49
2017-01-06T00:55:47.862Z,971.58
2017-01-06T00:58:00.447Z,971.56
2017-01-06T01:00:12.810Z,971.63
2017-01-06T01:02:25.268Z,971.66
2017-01-06T01:04:37.636Z,971.66
2017-01-06T01:06:52.047Z,971.67
2017-01-06T01:09:04.455Z,971.73
2017-01-06T01:11:11.746Z,971.77
2017-01-06T01:13:24.143Z,971.83
2017-01-06T01:15:36.635Z,971.84
2017-01-06T01:17:49.261Z,971.86
2017-01-06T01:20:01.788Z,971.92
2017-01-06T01:22:14.230Z,971.98
2017-01-06T01:24:26.492Z,972.01
2017-01-06T01:26:34.831Z,972.03
2017-01-06T01:28:47.277Z,972.04
2017-01-06T01:30:54.792Z,972.06
2017-01-06T01:33:07.289Z,972.09
2017-01-06T01:35:19.717Z,972.07
2017-01-06T01:37:32.067Z,972.12
2017-01-06T01:39:44.552Z,972.19
2017-01-06T01:41:56.844Z,972.19
2017-01-06T01:44:10.324Z,972.19
2017-01-06T01:46:18.237Z,972.17
2017-01-06T01:48:25.551Z,972.16
2017-01-06T01:50:37.940Z,972.18
2017-01-06T01:52:52.888Z,972.16
2017-01-06T01:55:05.769Z,972.18
2017-01-06T01:57:18.513Z,972.18
2017-01-06T01:59:30.935Z,972.2
2017-01-06T02:01:43.312Z,972.18
2017-01-06T02:03:55.780Z,972.2
2017-01-06T02:06:08.194Z,972.21
2017-01-06T02:08:15.727Z,972.24
2017-01-06T02:10:28.096Z,972.24
2017-01-06T02:12:40.545Z,972.3
2017-01-06T02:14:52.894Z,972.3
2017-01-06T02:17:05.150Z,972.28
2017-01-06T02:19:17.379Z,972.28
2017-01-06T02:21:29.577Z,972.25
2017-01-06T02:23:42.000Z,972.31
2017-01-06T02:25:54.364Z,972.35
2017-01-06T02:28:01.944Z,972.35
2017-01-06T02:30:10.032Z,972.37
2017-01-06T02:32:22.453Z,972.42
2017-01-06T02:34:34.731Z,972.45
2017-01-06T02:36:48.023Z,972.38
2017-01-06T02:39:00.397Z,972.46
2017-01-06T02:41:12.628Z,972.5
2017-01-06T02:43:27.207Z,972.49
2017-01-06T02:45:39.485Z,972.51
2017-01-06T02:47:51.910Z,972.54
2017-01-06T02:49:59.264Z,972.47
2017-01-06T02:52:11.699Z,972.47
2017-01-06T02:54:24.031Z,972.51
2017-01-06T02:56:36.382Z,972.49
2017-01-06T02:58:43.833Z,972.52
2017-01-06T03:00:56.247Z,972.52
2017-01-06T03:03:08.954Z,972.53
2017-01-06T03:05:21.534Z,972.52
2017-01-06T03:07:33.734Z,972.62
2017-01-06T03:09:46.123Z,972.65
2017-01-06T03:11:58.403Z,972.65
2017-01-06T03:14:10.720Z,972.7
2017-01-06T03:16:23.883Z,972.73
2017-01-06T03:18:36.276Z,972.7
2017-01-06T03:20:43.800Z,972.73
2017-01-06T03:22:56.101Z,972.76
2017-01-06T03:25:08.459Z,972.75
2017-01-06T03:27:20.900Z,972.79
2017-01-06T03:29:33.438Z,972.79
2017-01-06T03:31:45.855Z,972.8
2017-01-06T03:33:58.257Z,972.86
2017-01-06T03:36:10.676Z,972.82
2017-01-06T03:38:23.357Z,972.83
2017-01-06T03:40:35.887Z,972.83
2017-01-06T03:42:49.325Z,972.87
2017-01-06T03:45:01.698Z,972.88
2017-01-06T03:47:14.058Z,972.9
2017-01-06T03:49:21.452Z,972.93
2017-01-06T03:51:33.776Z,972.91
2017-01-06T03:53:46.315Z,972.88
2017-01-06T03:55:58.615Z,972.92
2017-01-06T03:58:00.921Z,972.96
2017-01-06T04:00:13.179Z,972.93
2017-01-06T04:02:15.477Z,972.92
2017-01-06T04:04:27.815Z,972.95
2017-01-06T04:06:35.224Z,972.99
2017-01-06T04:08:47.616Z,973.04
2017-01-06T04:10:54.973Z,973.02
2017-01-06T04:13:07.458Z,972.99
2017-01-06T04:15:20.192Z,973.02
2017-01-06T04:17:32.477Z,973.02
2017-01-06T04:19:45.890Z,973.02
2017-01-06T04:21:58.149Z,973.09
2017-01-06T04:24:10.489Z,973.08
2017-01-06T04:26:22.853Z,973.12
2017-01-06T04:28:36.005Z,973.15
2017-01-06T04:30:48.364Z,973.17
2017-01-06T04:33:00.651Z,973.23
2017-01-06T04:35:12.927Z,973.28
2017-01-06T04:37:25.328Z,973.27
2017-01-06T04:39:38.442Z,973.2
2017-01-06T04:41:50.631Z,973.21
2017-01-06T04:44:02.966Z,973.2
2017-01-06T04:46:15.652Z,973.18
2017-01-06T04:48:28.238Z,973.21
2017-01-06T04:50:40.775Z,973.26
2017-01-06T04:52:54.880Z,973.24
2017-01-06T04:55:07.296Z,973.24
2017-01-06T04:57:19.697Z,973.26
2017-01-06T04:59:32.205Z,973.3
2017-01-06T05:01:44.502Z,973.35
2017-01-06T05:03:57.040Z,973.38
2017-01-06T05:06:04.498Z,973.41
2017-01-06T05:08:16.930Z,973.41
2017-01-06T05:10:29.318Z,973.45
2017-01-06T05:12:41.764Z,973.43
2017-01-06T05:14:49.298Z,973.41
2017-01-06T05:16:56.673Z,973.42
2017-01-06T05:19:09.091Z,973.46
2017-01-06T05:21:21.480Z,973.52
2017-01-06T05:23:34.088Z,973.48
2017-01-06T05:25:46.730Z,973.59
2017-01-06T05:27:58.924Z,973.64
2017-01-06T05:30:11.352Z,973.71
2017-01-06T05:32:23.705Z,973.69
2017-01-06T05:34:31.033Z,973.67
2017-01-06T05:36:43.375Z,973.66
2017-01-06T05:38:55.736Z,973.69
2017-01-06T05:40:58.108Z,973.73
2017-01-06T05:43:10.357Z,973.79
2017-01-06T05:45:22.623Z,973.83
2017-01-06T05:47:34.967Z,973.89
2017-01-06T05:49:47.238Z,973.89
2017-01-06T05:51:59.626Z,973.91
2017-01-06T05:54:11.992Z,973.98
2017-01-06T05:56:24.229Z,973.99
2017-01-06T05:58:37.091Z,974.06
2017-01-06T06:00:49.800Z,974.05
2017-01-06T06:03:02.129Z,974.09
2017-01-06T06:05:14.613Z,974.17
2017-01-06T06:07:26.923Z,974.25
2017-01-06T06:09:39.418Z,974.21
2017-01-06T06:11:46.673Z,974.18
2017-01-06T06:13:58.995Z,974.2
2017-01-06T06:16:11.434Z,974.19
2017-01-06T06:18:23.647Z,974.22
2017-01-06T06:20:31.235Z,974.25
2017-01-06T06:22:43.510Z,974.28
2017-01-06T06:24:50.807Z,974.34
2017-01-06T06:27:03.073Z,974.32
2017-01-06T06:29:15.338Z,974.32
2017-01-06T06:31:27.729Z,974.36
2017-01-06T06:33:40.474Z,974.36
2017-01-06T06:35:54.110Z,974.41
2017-01-06T06:38:06.522Z,974.46
2017-01-06T06:40:18.750Z,974.48
2017-01-06T06:42:31.210Z,974.47
2017-01-06T06:44:43.568Z,974.53
2017-01-06T06:46:55.960Z,974.56
2017-01-06T06:49:08.279Z,974.6
2017-01-06T06:51:20.509Z,974.6
2017-01-06T06:53:32.821Z,974.72
2017-01-06T06:55:45.048Z,974.69
2017-01-06T06:57:57.260Z,974.75
2017-01-06T07:00:04.694Z,974.74
2017-01-06T07:02:17.025Z,974.74
2017-01-06T07:04:29.240Z,974.79
2017-01-06T07:06:41.465Z,974.75
2017-01-06T07:08:54.250Z,974.7
2017-01-06T07:11:07.977Z,974.73
2017-01-06T07:13:20.619Z,974.76
2017-01-06T07:15:32.892Z,974.79
2017-01-06T07:17:45.192Z,974.82
2017-01-06T07:19:57.493Z,974.87
2017-01-06T07:22:09.907Z,974.85
2017-01-06T07:24:22.246Z,974.87
2017-01-06T07:26:34.653Z,974.8
2017-01-06T07:28:46.970Z,974.88
2017-01-06T07:30:59.337Z,974.93
2017-01-06T07:33:11.780Z,974.97
2017-01-06T07:35:24.122Z,974.98
2017-01-06T07:37:36.330Z,975.01
2017-01-06T07:39:43.616Z,975.1
2017-01-06T07:41:55.965Z,975.17
2017-01-06T07:44:08.420Z,975.16
2017-01-06T07:46:16.231Z,975.2
2017-01-06T07:48:28.688Z,975.24
2017-01-06T07:50:40.889Z,975.25
2017-01-06T07:52:53.325Z,975.26
2017-01-06T07:55:05.735Z,975.21
2017-01-06T07:57:13.407Z,975.24
2017-01-06T07:59:25.932Z,975.22
2017-01-06T08:01:33.246Z,975.19
2017-01-06T08:03:40.743Z,975.22
2017-01-06T08:05:53.532Z,975.3
2017-01-06T08:08:07.350Z,975.28
2017-01-06T08:10:20.589Z,975.24
2017-01-06T08:12:27.959Z,975.31
2017-01-06T08:14:41.144Z,975.39
2017-01-06T08:16:55.944Z,975.42
2017-01-06T08:19:08.352Z,975.37
2017-01-06T08:21:20.778Z,975.37
2017-01-06T08:23:42.969Z,975.4
2017-01-06T08:25:59.105Z,975.47
2017-01-06T08:28:06.317Z,975.48
2017-01-06T08:30:13.543Z,975.47
2017-01-06T08:32:25.759Z,975.51
2017-01-06T08:34:37.958Z,975.52
2017-01-06T08:36:50.196Z,975.57
2017-01-06T08:39:02.514Z,975.55
2017-01-06T08:41:14.922Z,975.52
2017-01-06T08:43:27.247Z,975.56
2017-01-06T08:45:39.515Z,975.56
2017-01-06T08:47:51.644Z,975.62
2017-01-06T08:50:03.799Z,975.55
2017-01-06T08:52:15.972Z,975.53
2017-01-06T08:54:28.249Z,975.54
2017-01-06T08:56:40.418Z,975.57
2017-01-06T08:58:52.653Z,975.55
2017-01-06T09:01:05.290Z,975.6
2017-01-06T09:03:12.491Z,975.6
2017-01-06T09:05:25.011Z,975.61
2017-01-06T09:07:37.303Z,975.6
2017-01-06T09:09:49.559Z,975.61
2017-01-06T09:12:02.015Z,975.58
2017-01-06T09:14:14.315Z,975.64
2017-01-06T09:16:26.664Z,975.61
2017-01-06T09:18:39.045Z,975.64
2017-01-06T09:21:00.371Z,975.65
2017-01-06T09:23:15.044Z,975.67
2017-01-06T09:25:27.142Z,975.65
2017-01-06T09:27:39.501Z,975.62
2017-01-06T09:29:51.698Z,975.62
2017-01-06T09:31:58.926Z,975.63
2017-01-06T09:34:06.249Z,975.62
2017-01-06T09:36:18.405Z,975.58
2017-01-06T09:38:30.877Z,975.6
2017-01-06T09:40:33.212Z,975.55
2017-01-06T09:42:45.426Z,975.55
2017-01-06T09:44:57.884Z,975.6
2017-01-06T09:47:10.123Z,975.62
2017-01-06T09:49:22.427Z,975.59
2017-01-06T09:51:34.724Z,975.6
2017-01-06T09:53:46.984Z,975.62
2017-01-06T09:55:59.437Z,975.6
2017-01-06T09:58:11.756Z,975.56
2017-01-06T10:00:24.055Z,975.57
2017-01-06T10:02:36.206Z,975.55
2017-01-06T10:04:48.406Z,975.54
2017-01-06T10:07:00.581Z,975.55
2017-01-06T10:09:07.785Z,975.53
2017-01-06T10:11:20.256Z,975.46
2017-01-06T10:13:32.568Z,975.41
2017-01-06T10:15:44.865Z,975.41
2017-01-06T10:17:52.449Z,975.36
2017-01-06T10:20:05.706Z,975.33
2017-01-06T10:22:17.996Z,975.31
2017-01-06T10:24:30.574Z,975.31
2017-01-06T10:26:42.896Z,975.23
2017-01-06T10:28:55.265Z,975.27
2017-01-06T10:31:02.831Z,975.28
2017-01-06T10:33:15.097Z,975.26
2017-01-06T10:35:27.418Z,975.27
2017-01-06T10:37:39.850Z,975.28
2017-01-06T10:39:52.418Z,975.27
2017-01-06T10:42:04.999Z,975.29
2017-01-06T10:44:17.708Z,975.28
2017-01-06T10:46:30.100Z,975.24
2017-01-06T10:48:42.452Z,975.19
2017-01-06T10:50:55.802Z,975.14
2017-01-06T10:53:09.528Z,975.02
2017-01-06T10:55:22.737Z,975.05
2017-01-06T10:57:35.016Z,975.01
2017-01-06T10:59:47.560Z,974.96
2017-01-06T11:02:01.636Z,974.83
2017-01-06T11:04:14.679Z,974.73
2017-01-06T11:06:22.199Z,974.64
2017-01-06T11:08:35.312Z,974.64
2017-01-06T11:10:47.849Z,974.62
2017-01-06T11:12:55.447Z,974.55
2017-01-06T11:15:07.865Z,974.52
2017-01-06T11:17:20.286Z,974.43
2017-01-06T11:19:32.557Z,974.4
2017-01-06T11:21:44.764Z,974.47
2017-01-06T11:23:57.373Z,974.4
2017-01-06T11:26:05.916Z,974.4
2017-01-06T11:28:19.577Z,974.28
2017-01-06T11:30:35.939Z,974.25
2017-01-06T11:32:44.737Z,974.24
2017-01-06T11:34:57.633Z,974.18
2017-01-06T11:37:10.566Z,974.17
2017-01-06T11:39:19.566Z,974.11
2017-01-06T11:41:32.683Z,974.11
2017-01-06T11:43:45.931Z,974.11
2017-01-06T11:45:59.054Z,974.11
2017-01-06T11:48:12.465Z,974.05
2017-01-06T11:50:25.548Z,974.07
2017-01-06T11:52:40.206Z,973.95
2017-01-06T11:54:53.721Z,973.95
2017-01-06T11:57:07.010Z,973.97
2017-01-06T11:59:21.503Z,973.97
2017-01-06T12:01:30.573Z,973.93
2017-01-06T12:03:44.136Z,973.84
2017-01-06T12:05:57.242Z,973.87
2017-01-06T12:08:10.037Z,973.87
2017-01-06T12:10:22.450Z,973.86
2017-01-06T12:12:35.410Z,973.83
2017-01-06T12:14:47.814Z,973.79
2017-01-06T12:17:00.363Z,973.8
2017-01-06T12:19:12.708Z,973.79
2017-01-06T12:21:26.211Z,973.81
2017-01-06T12:23:33.665Z,973.7
2017-01-06T12:25:46.238Z,973.64
2017-01-06T12:28:01.808Z,973.67
2017-01-06T12:30:14.242Z,973.68
2017-01-06T12:32:26.576Z,973.62
2017-01-06T12:34:39.229Z,973.65
2017-01-06T12:36:55.701Z,973.65
2017-01-06T12:39:08.192Z,973.68
2017-01-06T12:41:20.800Z,973.65
2017-01-06T12:43:33.203Z,973.67
2017-01-06T12:45:40.727Z,973.71
2017-01-06T12:47:53.315Z,973.67
2017-01-06T12:50:06.226Z,973.65
2017-01-06T12:52:18.479Z,973.67
2017-01-06T12:54:30.980Z,973.73
2017-01-06T12:56:44.131Z,973.73
2017-01-06T12:58:56.690Z,973.72
2017-01-06T13:01:09.711Z,973.71
2017-01-06T13:03:22.150Z,973.69
2017-01-06T13:05:34.811Z,973.69
2017-01-06T13:07:47.443Z,973.73
2017-01-06T13:10:00.034Z,973.62
2017-01-06T13:12:12.318Z,973.67
2017-01-06T13:14:19.695Z,973.63
2017-01-06T13:16:31.980Z,973.67
2017-01-06T13:18:44.541Z,973.6
2017-01-06T13:20:57.021Z,973.59
2017-01-06T13:23:05.553Z,973.6
2017-01-06T13:25:13.139Z,973.56
2017-01-06T13:27:25.630Z,973.57
2017-01-06T13:29:38.255Z,973.62
2017-01-06T13:31:50.792Z,973.61
2017-01-06T13:34:03.147Z,973.63
2017-01-06T13:36:15.561Z,973.59
2017-01-06T13:38:27.911Z,973.65
2017-01-06T13:40:40.339Z,973.54
2017-01-06T13:42:52.658Z,973.61
2017-01-06T13:45:05.000Z,973.58
2017-01-06T13:47:12.540Z,973.59
2017-01-06T13:49:24.885Z,973.63
2017-01-06T13:51:37.455Z,973.62
2017-01-06T13:53:50.746Z,973.66
2017-01-06T13:56:07.027Z,973.65
2017-01-06T13:58:20.303Z,973.67
2017-01-06T14:00:27.669Z,973.65
2017-01-06T14:02:41.061Z,973.55
2017-01-06T14:04:54.453Z,973.61
2017-01-06T14:07:06.865Z,973.63
2017-01-06T14:09:09.395Z,973.67
2017-01-06T14:11:21.798Z,973.69
2017-01-06T14:13:34.125Z,973.66
2017-01-06T14:15:46.428Z,973.76
2017-01-06T14:18:04.891Z,973.77
2017-01-06T14:20:23.474Z,973.77
2017-01-06T14:22:35.896Z,973.81
2017-01-06T14:24:48.417Z,973.86
2017-01-06T14:27:00.994Z,973.92
2017-01-06T14:29:13.547Z,973.88
2017-01-06T14:31:25.794Z,973.96
2017-01-06T14:33:38.266Z,974.01
2017-01-06T14:35:50.611Z,974.02
2017-01-06T14:38:02.960Z,974.03
2017-01-06T14:40:15.509Z,974.07
2017-01-06T14:42:28.336Z,974.1
2017-01-06T14:44:41.065Z,974.19
2017-01-06T14:46:48.602Z,974.16
2017-01-06T14:49:01.303Z,974.2
2017-01-06T14:51:14.290Z,974.21
2017-01-06T14:53:26.824Z,974.24
2017-01-06T14:55:34.587Z,974.22
2017-01-06T14:57:47.147Z,974.26
2017-01-06T14:59:59.832Z,974.3
2017-01-06T15:02:12.240Z,974.38
2017-01-06T15:04:24.877Z,974.44
2017-01-06T15:06:37.428Z,974.46
2017-01-06T15:08:44.881Z,974.45
2017-01-06T15:10:57.453Z,974.48
2017-01-06T15:13:09.954Z,974.47
2017-01-06T15:15:22.431Z,974.52
2017-01-06T15:17:34.801Z,974.52
2017-01-06T15:19:47.330Z,974.57
2017-01-06T15:21:59.889Z,974.55
2017-01-06T15:24:12.503Z,974.59
2017-01-06T15:26:24.840Z,974.6
2017-01-06T15:28:37.612Z,974.61
2017-01-06T15:30:50.923Z,974.63
2017-01-06T15:33:03.865Z,974.59
2017-01-06T15:35:16.829Z,974.64
2017-01-06T15:37:24.593Z,974.67
2017-01-06T15:39:36.778Z,974.62
2017-01-06T15:41:49.090Z,974.64
2017-01-06T15:44:01.279Z,974.66
2017-01-06T15:46:13.722Z,974.68
2017-01-06T15:48:26.030Z,974.69
2017-01-06T15:50:38.426Z,974.71
2017-01-06T15:52:50.851Z,974.76
2017-01-06T15:54:58.123Z,974.8
2017-01-06T15:57:10.554Z,974.8
2017-01-06T15:59:23.044Z,974.82
2017-01-06T16:01:35.267Z,974.82
2017-01-06T16:03:42.590Z,974.83
2017-01-06T16:05:54.844Z,974.85
2017-01-06T16:08:07.116Z,974.9
2017-01-06T16:10:19.640Z,974.94
2017-01-06T16:12:31.984Z,975
2017-01-06T16:14:39.499Z,975
2017-01-06T16:16:51.971Z,974.97
2017-01-06T16:19:04.489Z,975.04
2017-01-06T16:21:17.119Z,975.04
2017-01-06T16:23:24.571Z,974.98
2017-01-06T16:25:37.188Z,975.04
2017-01-06T16:27:49.901Z,975.06
2017-01-06T16:30:02.302Z,975.04
2017-01-06T16:32:14.973Z,975.07
2017-01-06T16:34:27.469Z,975.11
2017-01-06T16:36:43.056Z,975.14
2017-01-06T16:38:55.806Z,975.16
2017-01-06T16:41:08.598Z,975.18
2017-01-06T16:43:21.179Z,975.21
2017-01-06T16:45:33.587Z,975.21
2017-01-06T16:47:46.283Z,975.2
2017-01-06T16:49:53.910Z,975.15
2017-01-06T16:52:06.556Z,975.2
2017-01-06T16:54:23.636Z,975.21
2017-01-06T16:56:42.117Z,975.16
2017-01-06T16:58:54.511Z,975.17
2017-01-06T17:01:07.154Z,975.22
2017-01-06T17:03:19.783Z,975.24
2017-01-06T17:05:32.671Z,975.22
2017-01-06T17:07:45.179Z,975.29
2017-01-06T17:09:57.674Z,975.28
2017-01-06T17:12:04.972Z,975.25
2017-01-06T17:14:17.800Z,975.29
2017-01-06T17:16:30.084Z,975.28
2017-01-06T17:18:42.874Z,975.3
2017-01-06T17:20:51.067Z,975.24
2017-01-06T17:23:03.651Z,975.25
2017-01-06T17:25:15.980Z,975.24
2017-01-06T17:27:28.493Z,975.25
2017-01-06T17:29:41.003Z,975.24
2017-01-06T17:31:53.644Z,975.33
2017-01-06T17:34:06.037Z,975.37
2017-01-06T17:36:18.497Z,975.36
2017-01-06T17:38:30.875Z,975.34
2017-01-06T17:40:43.371Z,975.37
2017-01-06T17:42:55.888Z,975.45
2017-01-06T17:45:08.483Z,975.43
2017-01-06T17:47:20.977Z,975.47
2017-01-06T17:49:33.606Z,975.47
2017-01-06T17:51:46.024Z,975.43
2017-01-06T17:53:58.484Z,975.5
2017-01-06T17:56:10.835Z,975.41
2017-01-06T17:58:18.527Z,975.38
2017-01-06T18:00:30.976Z,975.38
2017-01-06T18:02:38.315Z,975.39
2017-01-06T18:04:50.761Z,975.39
2017-01-06T18:07:03.221Z,975.44
2017-01-06T18:09:10.864Z,975.4
2017-01-06T18:11:23.493Z,975.39
2017-01-06T18:13:35.928Z,975.39
2017-01-06T18:15:48.484Z,975.44
2017-01-06T18:18:01.213Z,975.4
2017-01-06T18:20:13.797Z,975.4
2017-01-06T18:22:21.205Z,975.32
2017-01-06T18:24:33.500Z,975.34
2017-01-06T18:26:45.851Z,975.3
2017-01-06T18:28:58.231Z,975.29
2017-01-06T18:31:10.627Z,975.27
2017-01-06T18:33:23.293Z,975.27
2017-01-06T18:35:35.651Z,975.29
2017-01-06T18:37:48.304Z,975.26
2017-01-06T18:40:01.008Z,975.25
2017-01-06T18:42:13.556Z,975.27
2017-01-06T18:44:26.042Z,975.28
2017-01-06T18:46:33.664Z,975.29
2017-01-06T18:48:46.138Z,975.28
2017-01-06T18:50:53.521Z,975.29
2017-01-06T18:53:06.357Z,975.28
2017-01-06T18:55:19.008Z,975.25
2017-01-06T18:57:31.628Z,975.17
2017-01-06T18:59:44.616Z,975.18
2017-01-06T19:01:57.430Z,975.22
2017-01-06T19:04:10.537Z,975.16
2017-01-06T19:06:34.331Z,975.16
2017-01-06T19:08:48.351Z,975.1
2017-01-06T19:10:55.968Z,975.14
2017-01-06T19:13:09.000Z,975.12
2017-01-06T19:15:16.751Z,975.12
2017-01-06T19:17:29.492Z,975.16
2017-01-06T19:19:37.275Z,975.11
2017-01-06T19:22:02.369Z,975.09
2017-01-06T19:24:15.269Z,975.07
2017-01-06T19:26:28.053Z,975.06
2017-01-06T19:28:42.041Z,975.06
2017-01-06T19:30:56.643Z,975.09
2017-01-06T19:33:11.306Z,975.09
2017-01-06T19:35:25.778Z,975.05
2017-01-06T19:37:41.787Z,975.04
2017-01-06T19:39:57.273Z,975
2017-01-06T19:42:13.486Z,974.97
2017-01-06T19:44:28.585Z,974.98
2017-01-06T19:46:46.369Z,975.05
2017-01-06T19:49:05.159Z,975.14
2017-01-06T19:51:20.678Z,975.04
2017-01-06T19:53:36.587Z,975.04
2017-01-06T19:55:46.320Z,975.01
2017-01-06T19:58:01.820Z,974.99
2017-01-06T20:00:15.865Z,974.99
2017-01-06T20:02:30.458Z,974.96
2017-01-06T20:04:46.087Z,974.96
2017-01-06T20:07:00.691Z,974.93
2017-01-06T20:09:15.426Z,974.92
2017-01-06T20:11:32.017Z,974.87
2017-01-06T20:13:47.084Z,974.79
2017-01-06T20:16:01.778Z,974.77
2017-01-06T20:18:11.231Z,974.79
2017-01-06T20:20:26.110Z,974.73
2017-01-06T20:22:40.503Z,974.7
2017-01-06T20:24:56.600Z,974.65
2017-01-06T20:27:12.485Z,974.74
2017-01-06T20:29:27.938Z,974.7
2017-01-06T20:31:41.723Z,974.72
2017-01-06T20:33:55.488Z,974.72
2017-01-06T20:36:09.337Z,974.7
2017-01-06T20:38:23.910Z,974.66
2017-01-06T20:40:37.848Z,974.7
2017-01-06T20:42:51.990Z,974.71
2017-01-06T20:45:06.036Z,974.7
2017-01-06T20:47:20.314Z,974.69
2017-01-06T20:49:33.616Z,974.67
2017-01-06T20:51:48.386Z,974.67
2017-01-06T20:54:01.871Z,974.67
2017-01-06T20:56:15.004Z,974.75
2017-01-06T20:58:22.744Z,974.78
2017-01-06T21:00:36.245Z,974.75
2017-01-06T21:02:48.983Z,974.75
2017-01-06T21:05:02.527Z,974.7
2017-01-06T21:07:16.157Z,974.68
2017-01-06T21:09:30.094Z,974.74
2017-01-06T21:11:43.501Z,974.73
2017-01-06T21:13:56.824Z,974.7
2017-01-06T21:16:10.421Z,974.73
2017-01-06T21:18:18.977Z,974.74
2017-01-06T21:20:32.612Z,974.72
2017-01-06T21:22:45.546Z,974.68
2017-01-06T21:24:58.509Z,974.76
2017-01-06T21:27:11.153Z,974.72
2017-01-06T21:29:23.644Z,974.69
2017-01-06T21:31:36.259Z,974.71
2017-01-06T21:33:48.762Z,974.74
2017-01-06T21:35:56.555Z,974.79
2017-01-06T21:38:09.348Z,974.8
2017-01-06T21:40:11.822Z,974.79
2017-01-06T21:42:24.215Z,974.79
2017-01-06T21:44:36.527Z,974.85
2017-01-06T21:46:49.172Z,974.88
2017-01-06T21:49:01.620Z,974.82
2017-01-06T21:51:14.331Z,974.8
2017-01-06T21:53:26.971Z,974.9
2017-01-06T21:55:47.162Z,974.9
2017-01-06T21:58:35.329Z,974.92
2017-01-06T22:00:47.893Z,974.88
2017-01-06T22:03:00.475Z,974.88
2017-01-06T22:05:13.000Z,974.9
2017-01-06T22:07:26.056Z,974.96
2017-01-06T22:09:38.606Z,974.94
2017-01-06T22:11:54.487Z,974.94
2017-01-06T22:14:09.178Z,974.91
2017-01-06T22:16:22.617Z,974.91
2017-01-06T22:18:36.165Z,974.86
2017-01-06T22:20:48.724Z,974.84
2017-01-06T22:23:02.475Z,974.87
2017-01-06T22:25:10.055Z,974.84
2017-01-06T22:27:22.647Z,974.85
2017-01-06T22:29:35.069Z,974.86
2017-01-06T22:31:42.617Z,974.84
2017-01-06T22:33:54.972Z,974.82
2017-01-06T22:36:09.142Z,974.8
2017-01-06T22:38:22.709Z,974.84
2017-01-06T22:40:36.324Z,974.8
2017-01-06T22:42:50.466Z,974.83
2017-01-06T22:45:02.759Z,974.8
2017-01-06T22:47:15.523Z,974.72
2017-01-06T22:49:22.900Z,974.75
2017-01-06T22:51:35.532Z,974.73
2017-01-06T22:53:47.993Z,974.67
2017-01-06T22:56:00.382Z,974.57
2017-01-06T22:58:12.864Z,974.55
2017-01-06T23:00:15.642Z,974.52
2017-01-06T23:02:23.031Z,974.51
2017-01-06T23:04:35.533Z,974.55
2017-01-06T23:06:47.791Z,974.56
2017-01-06T23:09:00.165Z,974.61
2017-01-06T23:11:12.510Z,974.51
2017-01-06T23:13:24.928Z,974.52
2017-01-06T23:15:32.390Z,974.51
2017-01-06T23:17:44.811Z,974.49
2017-01-06T23:19:57.274Z,974.5
2017-01-06T23:22:09.633Z,974.43
2017-01-06T23:24:21.963Z,974.46
2017-01-06T23:26:34.513Z,974.4
2017-01-06T23:28:46.928Z,974.36
2017-01-06T23:30:59.333Z,974.41
2017-01-06T23:33:07.074Z,974.33
2017-01-06T23:35:19.837Z,974.33
2017-01-06T23:37:27.371Z,974.32
2017-01-06T23:39:39.719Z,974.29
2017-01-06T23:41:52.172Z,974.25
2017-01-06T23:44:04.567Z,974.21
2017-01-06T23:46:16.903Z,974.21
2017-01-06T23:48:29.375Z,974.22
2017-01-06T23:50:41.672Z,974.16
2017-01-06T23:52:54.085Z,974.2
2017-01-06T23:55:02.519Z,974.24
2017-01-06T23:57:14.811Z,974.11
2017-01-06T23:59:27.159Z,974.15
